Queen Victoria — ZCEF3 — position and weather

sailwx.info

Track history (hours):
 
Tides and Currents Weather Stations Pressure Air Temp Water Temp Dewpoint Dewpoint Depression Visibility Wind Speed Wind Dir Waves Ship Positions

Queen Victoria

Last reported at 2018-Sep-22 06:30 UTC. Time now 2018-Sep-22 06:55 UTC.
Position N 45°26' E 012°18'.

Length 294 m; draft 8 m.

Type: Passenger vessel. MMSI: 310624000.

Date/timePositionNaut miles runAvg speedWind from/ knotsBaromVisibWave heightAir tempDewpointWater temp
2018-Sep-22 06:30N 45°26' E 012°18'0 0.0
2018-Sep-22 06:03N 45°26' E 012°18'0 0.0
2018-Sep-22 06:00N 45°26' E 012°18'0 0.0
2018-Sep-22 05:30N 45°26' E 012°18'0 0.0
2018-Sep-22 05:03N 45°26' E 012°18'0 0.0
2018-Sep-22 05:00N 45°26' E 012°18'0 0.0
2018-Sep-22 04:30N 45°26' E 012°18'0 0.0
2018-Sep-22 04:03N 45°26' E 012°18'0 0.0
2018-Sep-22 04:00N 45°26' E 012°18'0 0.0
2018-Sep-22 03:30N 45°26' E 012°18'0 0.0
2018-Sep-22 03:03N 45°26' E 012°18'0 0.0
2018-Sep-22 03:00N 45°26' E 012°18'0 0.0
2018-Sep-22 02:30N 45°26' E 012°18'0 0.0
2018-Sep-22 02:03N 45°26' E 012°18'0 0.0
2018-Sep-22 02:00N 45°26' E 012°18'0 0.0
2018-Sep-22 01:27N 45°26' E 012°18'0 0.0
2018-Sep-22 01:00N 45°26' E 012°18'0 0.0
2018-Sep-22 00:30N 45°26' E 012°18'0 0.0
2018-Sep-22 00:03N 45°26' E 012°18'0 0.0
2018-Sep-22 00:00N 45°26' E 012°18'0 0.0
2018-Sep-21 23:30N 45°26' E 012°18'0 0.0
2018-Sep-21 23:03N 45°26' E 012°18'0 0.0
2018-Sep-21 23:00N 45°26' E 012°18'0 0.0
2018-Sep-21 22:27N 45°26' E 012°18'0 0.0
2018-Sep-21 22:03N 45°26' E 012°18'0 0.0
2018-Sep-21 22:00N 45°26' E 012°18'0 0.0
2018-Sep-21 21:30N 45°26' E 012°18'0 0.0
2018-Sep-21 21:03N 45°26' E 012°18'0 0.0
2018-Sep-21 21:00N 45°26' E 012°18'0 0.0
2018-Sep-21 20:30N 45°26' E 012°18'0 0.0
2018-Sep-21 19:57N 45°26' E 012°18'0 0.0
2018-Sep-21 19:30N 45°26' E 012°18'0 0.0
2018-Sep-21 19:03N 45°26' E 012°18'0 0.0
2018-Sep-21 19:00N 45°26' E 012°18'0 0.0
2018-Sep-21 18:30N 45°26' E 012°18'0 0.0
2018-Sep-21 18:03N 45°26' E 012°18'0 0.0
2018-Sep-21 18:00N 45°26' E 012°18'0 0.0
2018-Sep-21 17:30N 45°26' E 012°18'0 0.0
2018-Sep-21 17:03N 45°26' E 012°18'0 0.0
2018-Sep-21 17:00N 45°26' E 012°18'0 0.0
2018-Sep-21 16:30N 45°26' E 012°18'0 0.0
2018-Sep-21 16:00N 45°26' E 012°18'0 0.0
2018-Sep-21 15:30N 45°26' E 012°18'0 0.0
2018-Sep-21 15:03N 45°26' E 012°18'0 0.0
2018-Sep-21 15:00N 45°26' E 012°18'0 0.0
2018-Sep-21 14:30N 45°26' E 012°18'0 0.0
2018-Sep-21 13:30N 45°26' E 012°18'0 0.0
2018-Sep-21 13:03N 45°26' E 012°18'0 0.0
2018-Sep-21 13:00N 45°26' E 012°18'0 0.0
2018-Sep-21 12:30N 45°26' E 012°18'0 0.0
2018-Sep-21 12:03N 45°26' E 012°18'0 0.0
2018-Sep-21 11:57N 45°26' E 012°18'0 0.0
2018-Sep-21 11:30N 45°26' E 012°18'0 0.0
2018-Sep-21 11:03N 45°26' E 012°18'0 0.0
2018-Sep-21 11:00N 45°26' E 012°18'0 0.0
2018-Sep-21 10:30N 45°26' E 012°18'0 0.0
2018-Sep-21 10:00N 45°26' E 012°18'0 0.0
2018-Sep-21 09:30N 45°26' E 012°18'0 0.0
2018-Sep-21 09:03N 45°26' E 012°18'0 0.0
2018-Sep-21 09:00N 45°26' E 012°18'0 0.0
2018-Sep-21 08:27N 45°26' E 012°18'0 0.0
2018-Sep-21 08:03N 45°26' E 012°18'0 0.0
2018-Sep-21 08:00N 45°26' E 012°18'0 0.0
2018-Sep-21 07:30N 45°26' E 012°18'0 0.0
2018-Sep-21 07:03N 45°26' E 012°18'0 0.0
2018-Sep-21 07:00N 45°26' E 012°18'0 0.0
2018-Sep-21 06:30N 45°26' E 012°18'0 0.0
2018-Sep-21 06:03N 45°26' E 012°18'0 0.1
2018-Sep-21 06:00N 45°26' E 012°18'1 1.5
2018-Sep-21 05:30N 45°26' E 012°19'2 5.0
2018-Sep-21 05:03N 45°25' E 012°22'0 5.7
2018-Sep-21 05:00N 45°26' E 012°23'3 6.4
2018-Sep-21 04:30N 45°25' E 012°27'4 9.2
2018-Sep-21 04:03N 45°22' E 012°32'110.7
2018-Sep-21 04:01N 45°22' E 012°32'510.5
2018-Sep-21 03:30N 45°17' E 012°32'4 9.3
2018-Sep-21 03:03N 45°14' E 012°37'0 9.2
2018-Sep-21 03:00N 45°14' E 012°38'5 9.2
2018-Sep-21 02:30N 45°11' E 012°43'510.5
2018-Sep-21 02:03N 45°08' E 012°48'112.3
2018-Sep-21 02:01N 45°07' E 012°48'612.4
2018-Sep-21 01:30N 45°02' E 012°52'612.3
2018-Sep-21 01:03N 44°57' E 012°55'112.2
2018-Sep-21 01:00N 44°56' E 012°55'2142.6
2018-Sep-21 01:00N 44°54' E 012°54'510.2 340 / 61016.110.8 25.019.627.0
2018-Sep-21 00:30N 44°50' E 012°59'612.4
2018-Sep-21 00:03N 44°45' E 013°02'012.4
2018-Sep-21 00:00N 44°45' E 013°02'612.5
2018-Sep-20 23:31N 44°39' E 013°05'612.3
2018-Sep-20 23:03N 44°33' E 013°07'112.4
2018-Sep-20 23:00N 44°33' E 013°07'612.3
2018-Sep-20 22:29N 44°27' E 013°10'512.4
2018-Sep-20 22:04N 44°22' E 013°12'112.4
2018-Sep-20 22:01N 44°21' E 013°13'611.8
2018-Sep-20 21:30N 44°16' E 013°17'612.4
2018-Sep-20 21:04N 44°13' E 013°23'112.4
2018-Sep-20 21:01N 44°12' E 013°24'612.4
2018-Sep-20 20:30N 44°09' E 013°31'1812.2
2018-Sep-20 19:01N 43°58' E 013°51'012.0
2018-Sep-20 19:00N 43°58' E 013°52'612.2
2018-Sep-20 18:30N 43°54' E 013°58'612.3
2018-Sep-20 18:02N 43°51' E 014°05'012.2
2018-Sep-20 18:00N 43°51' E 014°05'612.0
2018-Sep-20 17:29N 43°48' E 014°13'47 8.5
2018-Sep-20 12:00N 43°12' E 014°54'3618.1 290 / 161017.4 5.4 24.022.525.0
2018-Sep-20 10:00N 42°36' E 014°48'88 9.8 300 / 121018.910.8 23.518.826.0
2018-Sep-20 01:00N 42°36' E 016°48'43 1.8 300 / 101017.310.8 24.519.926.0
2018-Sep-19 01:00N 42°06' E 017°30'3010.0 1018.510.8 24.020.226.0
2018-Sep-18 22:00N 41°42' E 017°54'34 1.6 1019.110.8 24.519.126.0
2018-Sep-18 01:00N 41°54' E 018°36'14814.5 330 / 31018.810.8 24.020.226.0
2018-Sep-17 14:47N 39°38' E 019°54'42 2.9
2018-Sep-17 00:00N 39°00' E 019°30'3919.6 020 / 161018.110.8 25.521.027.0
2018-Sep-16 22:00N 38°48' E 018°42'6412.8 340 / 221019.110.8 25.020.427.0
2018-Sep-16 17:00N 38°18' E 017°30'7318.2 330 / 161019.810.8 25.520.227.0
2018-Sep-16 13:00N 37°48' E 016°06'2423.8 160 / 51020.510.8 26.520.528.0
2018-Sep-16 11:59N 37°55' E 015°37'714.8
2018-Sep-16 11:30N 38°02' E 015°35'714.8
2018-Sep-16 11:03N 38°09' E 015°35'114.6
2018-Sep-16 11:00N 38°09' E 015°35'814.8
2018-Sep-16 10:26N 38°17' E 015°41'512.4
2018-Sep-16 10:03N 38°21' E 015°38'112.0
2018-Sep-16 10:00N 38°21' E 015°38'611.9
2018-Sep-16 09:29N 38°26' E 015°33'512.0
2018-Sep-16 09:03N 38°30' E 015°28'112.0
2018-Sep-16 08:57N 38°31' E 015°27'611.7
2018-Sep-16 08:28N 38°35' E 015°22'512.3
2018-Sep-16 08:03N 38°39' E 015°18'114.8
2018-Sep-16 07:59N 38°40' E 015°17'714.9
2018-Sep-16 07:30N 38°45' E 015°11'714.7
2018-Sep-16 07:03N 38°50' E 015°06'115.0
2018-Sep-16 07:00N 38°51' E 015°05'7717.6
2018-Sep-16 02:37N 39°48' E 013°59'618.3
2018-Sep-16 02:15N 39°53' E 013°53'619.7
2018-Sep-16 01:58N 39°57' E 013°48'1716.9
2018-Sep-16 01:00N 40°06' E 013°30'7117.7 260 / 41021.610.8 25.020.427.0
2018-Sep-15 21:00N 41°00' E 012°30'124 5.2 270 / 71021.310.8 24.519.127.0
2018-Sep-14 21:00N 42°30' E 010°36'1732.2 160 / 31017.210.8 24.020.226.0
2018-Sep-14 20:28N 42°47' E 010°32'1418.7
2018-Sep-14 19:43N 42°60' E 010°25'419.2
2018-Sep-14 19:30N 43°03' E 010°22'2019.2
2018-Sep-14 18:26N 43°22' E 010°11'718.1
2018-Sep-14 18:04N 43°29' E 010°11'116.1
2018-Sep-14 18:01N 43°30' E 010°11'510.0
2018-Sep-14 17:30N 43°32' E 010°17'1 1.8
2018-Sep-14 17:01N 43°33' E 010°18'0 0.0
2018-Sep-14 16:58N 43°33' E 010°18'0 0.0
2018-Sep-14 16:28N 43°33' E 010°18'0 0.0
2018-Sep-14 16:01N 43°33' E 010°18'0 0.0
2018-Sep-14 15:55N 43°33' E 010°18'0 0.0
2018-Sep-14 15:28N 43°33' E 010°18'0 0.0
2018-Sep-14 15:01N 43°33' E 010°18'0 0.0
2018-Sep-14 14:55N 43°33' E 010°18'0 0.0
2018-Sep-14 14:28N 43°33' E 010°18'0 0.0
2018-Sep-14 13:58N 43°33' E 010°18'0 0.0
2018-Sep-14 13:28N 43°33' E 010°18'0 0.0
2018-Sep-14 12:49N 43°33' E 010°18'0 0.0
2018-Sep-14 12:28N 43°33' E 010°18'0 0.0
2018-Sep-14 12:01N 43°33' E 010°18'0 0.0
2018-Sep-14 11:58N 43°33' E 010°18'0 0.0
2018-Sep-14 11:28N 43°33' E 010°18'0 0.0
2018-Sep-14 11:01N 43°33' E 010°18'0 0.0
2018-Sep-14 10:58N 43°33' E 010°18'0 0.0
2018-Sep-14 10:28N 43°33' E 010°18'0 0.0
2018-Sep-14 10:01N 43°33' E 010°18'0 0.0
2018-Sep-14 09:58N 43°33' E 010°18'0 0.0
2018-Sep-14 09:25N 43°33' E 010°18'0 0.0
2018-Sep-14 08:58N 43°33' E 010°18'0 0.0
2018-Sep-14 08:28N 43°33' E 010°18'0 0.0
2018-Sep-14 07:58N 43°33' E 010°18'0 0.0
2018-Sep-14 07:25N 43°33' E 010°18'0 0.0
2018-Sep-14 07:01N 43°33' E 010°18'0 0.0
2018-Sep-14 06:58N 43°33' E 010°18'0 0.0
2018-Sep-14 06:28N 43°33' E 010°18'0 0.0
2018-Sep-14 06:01N 43°33' E 010°18'0 0.0
2018-Sep-14 05:58N 43°33' E 010°18'0 0.0
2018-Sep-14 05:28N 43°33' E 010°18'0 0.0
2018-Sep-14 05:01N 43°33' E 010°18'0 0.0
2018-Sep-14 04:58N 43°33' E 010°18'0 0.2
2018-Sep-14 04:30N 43°33' E 010°18'2 5.3
2018-Sep-14 04:04N 43°31' E 010°15'0 3.8
2018-Sep-14 04:01N 43°31' E 010°15'510.5
2018-Sep-14 03:30N 43°30' E 010°08'511.8
2018-Sep-14 03:03N 43°31' E 010°01'111.2
2018-Sep-14 03:00N 43°31' E 010°00'612.0
2018-Sep-14 02:30N 43°32' E 009°52'612.5
2018-Sep-14 02:03N 43°33' E 009°44'112.6
2018-Sep-14 02:00N 43°33' E 009°44'612.4
2018-Sep-14 01:31N 43°33' E 009°35'612.5
2018-Sep-14 01:04N 43°34' E 009°27'112.6
2018-Sep-14 01:00N 43°34' E 009°26'4396.1
2018-Sep-14 01:00N 43°30' E 009°24'613.1 250 / 31015.310.8 23.020.726.0
2018-Sep-14 00:31N 43°34' E 009°18'612.5
2018-Sep-14 00:03N 43°35' E 009°10'012.7
2018-Sep-14 00:01N 43°36' E 009°09'612.5
2018-Sep-13 23:31N 43°37' E 009°01'512.0
2018-Sep-13 23:03N 43°36' E 008°54'112.5
2018-Sep-13 23:00N 43°35' E 008°53'241455.1
2018-Sep-13 23:00N 43°24' E 008°24'1836.5 060 / 121015.210.8 23.520.425.0
2018-Sep-13 22:31N 43°33' E 008°45'511.5
2018-Sep-13 22:03N 43°31' E 008°38'112.5
2018-Sep-13 22:01N 43°31' E 008°38'612.4
2018-Sep-13 21:30N 43°28' E 008°30'612.4
2018-Sep-13 21:04N 43°26' E 008°23'112.4
2018-Sep-13 21:00N 43°25' E 008°22'612.4
2018-Sep-13 20:31N 43°23' E 008°14'612.4
2018-Sep-13 20:04N 43°21' E 008°07'112.9
2018-Sep-13 20:01N 43°20' E 008°06'713.1
2018-Sep-13 19:30N 43°18' E 007°58'613.1
2018-Sep-13 19:03N 43°16' E 007°51'112.9
2018-Sep-13 19:01N 43°16' E 007°50'611.8
2018-Sep-13 18:31N 43°16' E 007°42'612.7
2018-Sep-13 18:03N 43°21' E 007°38'112.7
2018-Sep-13 18:00N 43°22' E 007°38'612.6
2018-Sep-13 17:30N 43°27' E 007°34'612.4
2018-Sep-13 17:03N 43°33' E 007°31'112.4
2018-Sep-13 17:01N 43°33' E 007°31'612.3
2018-Sep-13 16:31N 43°39' E 007°28'511.4
2018-Sep-13 16:03N 43°44' E 007°27'0 3.7
2018-Sep-13 16:00N 43°44' E 007°27'0 0.1
2018-Sep-13 15:31N 43°44' E 007°27'0 0.0
2018-Sep-13 15:04N 43°44' E 007°27'0 0.0
2018-Sep-13 15:01N 43°44' E 007°27'0 0.0
2018-Sep-13 14:30N 43°44' E 007°27'0 0.0
2018-Sep-13 14:00N 43°44' E 007°27'0 0.0
2018-Sep-13 13:30N 43°44' E 007°27'0 0.0
2018-Sep-13 13:04N 43°44' E 007°27'0 0.0
2018-Sep-13 13:01N 43°44' E 007°27'0 0.0
2018-Sep-13 12:30N 43°44' E 007°27'0 0.0
2018-Sep-13 12:04N 43°44' E 007°27'0 0.0
2018-Sep-13 12:01N 43°44' E 007°27'0 0.0
2018-Sep-13 11:31N 43°44' E 007°27'0 0.0
2018-Sep-13 11:03N 43°44' E 007°27'0 0.0
2018-Sep-13 11:01N 43°44' E 007°27'0 0.0
2018-Sep-13 10:31N 43°44' E 007°27'0 0.0
2018-Sep-13 10:04N 43°44' E 007°27'0 0.0
2018-Sep-13 10:01N 43°44' E 007°27'0 0.0
2018-Sep-13 09:31N 43°44' E 007°27'0 0.0
2018-Sep-13 09:04N 43°44' E 007°27'0 0.0
2018-Sep-13 09:00N 43°44' E 007°27'0 0.0
2018-Sep-13 08:31N 43°44' E 007°27'0 0.0
2018-Sep-13 08:04N 43°44' E 007°27'0 0.0
2018-Sep-13 08:01N 43°44' E 007°27'0 0.0
2018-Sep-13 07:31N 43°44' E 007°27'0 0.0
2018-Sep-13 07:03N 43°44' E 007°27'0 0.0
2018-Sep-13 07:00N 43°44' E 007°27'0 0.0
2018-Sep-13 06:31N 43°44' E 007°27'0 0.0
2018-Sep-13 06:04N 43°44' E 007°27'0 0.0
2018-Sep-13 06:01N 43°44' E 007°27'0 0.0
2018-Sep-13 05:30N 43°44' E 007°27'0 0.5
2018-Sep-13 05:04N 43°44' E 007°26'0 2.0
2018-Sep-13 05:01N 43°44' E 007°26'510.3
2018-Sep-13 04:31N 43°39' E 007°27'612.3
2018-Sep-13 04:04N 43°33' E 007°28'112.1
2018-Sep-13 04:01N 43°33' E 007°28'612.4
2018-Sep-13 03:30N 43°26' E 007°30'512.1
2018-Sep-13 03:04N 43°21' E 007°31'112.2
2018-Sep-13 03:00N 43°21' E 007°31'612.3
2018-Sep-13 02:30N 43°14' E 007°31'612.3
2018-Sep-13 02:04N 43°09' E 007°32'112.5
2018-Sep-13 02:00N 43°08' E 007°33'612.5
2018-Sep-13 01:31N 43°02' E 007°34'612.5
2018-Sep-13 01:02N 42°56' E 007°35'012.5
2018-Sep-13 01:00N 42°56' E 007°35'612.4
2018-Sep-13 00:30N 42°50' E 007°36'612.6
2018-Sep-13 00:04N 42°44' E 007°37'112.4
2018-Sep-13 00:01N 42°44' E 007°37'612.5
2018-Sep-12 23:30N 42°37' E 007°39'512.5
2018-Sep-12 23:03N 42°32' E 007°40'112.4
2018-Sep-12 23:01N 42°31' E 007°40'612.4
2018-Sep-12 22:31N 42°25' E 007°41'612.5
2018-Sep-12 22:04N 42°20' E 007°42'112.9
2018-Sep-12 22:00N 42°19' E 007°42'612.6
2018-Sep-12 21:31N 42°13' E 007°44'612.5
2018-Sep-12 21:03N 42°07' E 007°45'112.4
2018-Sep-12 21:00N 42°07' E 007°45'2153.5
2018-Sep-12 21:00N 42°06' E 007°42'613.1 270 / 151019.910.8 24.021.025.0
2018-Sep-12 20:31N 42°00' E 007°46'612.5
2018-Sep-12 20:03N 41°55' E 007°47'112.8
2018-Sep-12 20:00N 41°54' E 007°47'611.5
2018-Sep-12 19:30N 41°49' E 007°51'612.6
2018-Sep-12 19:03N 41°48' E 007°58'112.6
2018-Sep-12 19:00N 41°48' E 007°59'612.5
2018-Sep-12 18:31N 41°48' E 008°07'612.4
2018-Sep-12 18:04N 41°47' E 008°15'112.3
2018-Sep-12 18:01N 41°47' E 008°16'612.3
2018-Sep-12 17:30N 41°47' E 008°24'511.9
2018-Sep-12 17:03N 41°48' E 008°31'112.5
2018-Sep-12 17:00N 41°48' E 008°32'187.9
2018-Sep-12 17:00N 41°48' E 008°30'715.0 330 / 121019.810.8 25.022.026.0
2018-Sep-12 16:30N 41°51' E 008°39'511.1
2018-Sep-12 16:01N 41°54' E 008°45'1 8.7
2018-Sep-12 15:55N 41°55' E 008°45'  
Track history (hours):
 
Tides and Currents Weather Stations Pressure Air Temp Water Temp Dewpoint Dewpoint Depression Visibility Wind Speed Wind Dir Waves Ship Positions

Queen Victoria

Last reported at 2018-Sep-22 06:30 UTC. Time now 2018-Sep-22 06:55 UTC.
Position N 45°26' E 012°18'.

Length 294 m; draft 8 m.

Type: Passenger vessel. MMSI: 310624000.

Date/timePositionNaut miles runAvg speedWind from/ knotsBaromVisibWave heightAir tempDewpointWater temp
2018-Sep-22 06:30N 45°26' E 012°18'0 0.0
2018-Sep-22 06:03N 45°26' E 012°18'0 0.0
2018-Sep-22 06:00N 45°26' E 012°18'0 0.0
2018-Sep-22 05:30N 45°26' E 012°18'0 0.0
2018-Sep-22 05:03N 45°26' E 012°18'0 0.0
2018-Sep-22 05:00N 45°26' E 012°18'0 0.0
2018-Sep-22 04:30N 45°26' E 012°18'0 0.0
2018-Sep-22 04:03N 45°26' E 012°18'0 0.0
2018-Sep-22 04:00N 45°26' E 012°18'0 0.0
2018-Sep-22 03:30N 45°26' E 012°18'0 0.0
2018-Sep-22 03:03N 45°26' E 012°18'0 0.0
2018-Sep-22 03:00N 45°26' E 012°18'0 0.0
2018-Sep-22 02:30N 45°26' E 012°18'0 0.0
2018-Sep-22 02:03N 45°26' E 012°18'0 0.0
2018-Sep-22 02:00N 45°26' E 012°18'0 0.0
2018-Sep-22 01:27N 45°26' E 012°18'0 0.0
2018-Sep-22 01:00N 45°26' E 012°18'0 0.0
2018-Sep-22 00:30N 45°26' E 012°18'0 0.0
2018-Sep-22 00:03N 45°26' E 012°18'0 0.0
2018-Sep-22 00:00N 45°26' E 012°18'0 0.0
2018-Sep-21 23:30N 45°26' E 012°18'0 0.0
2018-Sep-21 23:03N 45°26' E 012°18'0 0.0
2018-Sep-21 23:00N 45°26' E 012°18'0 0.0
2018-Sep-21 22:27N 45°26' E 012°18'0 0.0
2018-Sep-21 22:03N 45°26' E 012°18'0 0.0
2018-Sep-21 22:00N 45°26' E 012°18'0 0.0
2018-Sep-21 21:30N 45°26' E 012°18'0 0.0
2018-Sep-21 21:03N 45°26' E 012°18'0 0.0
2018-Sep-21 21:00N 45°26' E 012°18'0 0.0
2018-Sep-21 20:30N 45°26' E 012°18'0 0.0
2018-Sep-21 19:57N 45°26' E 012°18'0 0.0
2018-Sep-21 19:30N 45°26' E 012°18'0 0.0
2018-Sep-21 19:03N 45°26' E 012°18'0 0.0
2018-Sep-21 19:00N 45°26' E 012°18'0 0.0
2018-Sep-21 18:30N 45°26' E 012°18'0 0.0
2018-Sep-21 18:03N 45°26' E 012°18'0 0.0
2018-Sep-21 18:00N 45°26' E 012°18'0 0.0
2018-Sep-21 17:30N 45°26' E 012°18'0 0.0
2018-Sep-21 17:03N 45°26' E 012°18'0 0.0
2018-Sep-21 17:00N 45°26' E 012°18'0 0.0
2018-Sep-21 16:30N 45°26' E 012°18'0 0.0
2018-Sep-21 16:00N 45°26' E 012°18'0 0.0
2018-Sep-21 15:30N 45°26' E 012°18'0 0.0
2018-Sep-21 15:03N 45°26' E 012°18'0 0.0
2018-Sep-21 15:00N 45°26' E 012°18'0 0.0
2018-Sep-21 14:30N 45°26' E 012°18'0 0.0
2018-Sep-21 13:30N 45°26' E 012°18'0 0.0
2018-Sep-21 13:03N 45°26' E 012°18'0 0.0
2018-Sep-21 13:00N 45°26' E 012°18'0 0.0
2018-Sep-21 12:30N 45°26' E 012°18'0 0.0
2018-Sep-21 12:03N 45°26' E 012°18'0 0.0
2018-Sep-21 11:57N 45°26' E 012°18'0 0.0
2018-Sep-21 11:30N 45°26' E 012°18'0 0.0
2018-Sep-21 11:03N 45°26' E 012°18'0 0.0
2018-Sep-21 11:00N 45°26' E 012°18'0 0.0
2018-Sep-21 10:30N 45°26' E 012°18'0 0.0
2018-Sep-21 10:00N 45°26' E 012°18'0 0.0
2018-Sep-21 09:30N 45°26' E 012°18'0 0.0
2018-Sep-21 09:03N 45°26' E 012°18'0 0.0
2018-Sep-21 09:00N 45°26' E 012°18'0 0.0
2018-Sep-21 08:27N 45°26' E 012°18'0 0.0
2018-Sep-21 08:03N 45°26' E 012°18'0 0.0
2018-Sep-21 08:00N 45°26' E 012°18'0 0.0
2018-Sep-21 07:30N 45°26' E 012°18'0 0.0
2018-Sep-21 07:03N 45°26' E 012°18'0 0.0
2018-Sep-21 07:00N 45°26' E 012°18'0 0.0
2018-Sep-21 06:30N 45°26' E 012°18'0 0.0
2018-Sep-21 06:03N 45°26' E 012°18'0 0.1
2018-Sep-21 06:00N 45°26' E 012°18'1 1.5
2018-Sep-21 05:30N 45°26' E 012°19'2 5.0
2018-Sep-21 05:03N 45°25' E 012°22'0 5.7
2018-Sep-21 05:00N 45°26' E 012°23'3 6.4
2018-Sep-21 04:30N 45°25' E 012°27'4 9.2
2018-Sep-21 04:03N 45°22' E 012°32'110.7
2018-Sep-21 04:01N 45°22' E 012°32'510.5
2018-Sep-21 03:30N 45°17' E 012°32'4 9.3
2018-Sep-21 03:03N 45°14' E 012°37'0 9.2
2018-Sep-21 03:00N 45°14' E 012°38'5 9.2
2018-Sep-21 02:30N 45°11' E 012°43'510.5
2018-Sep-21 02:03N 45°08' E 012°48'112.3
2018-Sep-21 02:01N 45°07' E 012°48'612.4
2018-Sep-21 01:30N 45°02' E 012°52'612.3
2018-Sep-21 01:03N 44°57' E 012°55'112.2
2018-Sep-21 01:00N 44°56' E 012°55'2142.6
2018-Sep-21 01:00N 44°54' E 012°54'510.2 340 / 61016.110.8 25.019.627.0
2018-Sep-21 00:30N 44°50' E 012°59'612.4
2018-Sep-21 00:03N 44°45' E 013°02'012.4
2018-Sep-21 00:00N 44°45' E 013°02'612.5
2018-Sep-20 23:31N 44°39' E 013°05'612.3
2018-Sep-20 23:03N 44°33' E 013°07'112.4
2018-Sep-20 23:00N 44°33' E 013°07'612.3
2018-Sep-20 22:29N 44°27' E 013°10'512.4
2018-Sep-20 22:04N 44°22' E 013°12'112.4
2018-Sep-20 22:01N 44°21' E 013°13'611.8
2018-Sep-20 21:30N 44°16' E 013°17'612.4
2018-Sep-20 21:04N 44°13' E 013°23'112.4
2018-Sep-20 21:01N 44°12' E 013°24'612.4
2018-Sep-20 20:30N 44°09' E 013°31'1812.2
2018-Sep-20 19:01N 43°58' E 013°51'012.0
2018-Sep-20 19:00N 43°58' E 013°52'612.2
2018-Sep-20 18:30N 43°54' E 013°58'612.3
2018-Sep-20 18:02N 43°51' E 014°05'012.2
2018-Sep-20 18:00N 43°51' E 014°05'612.0
2018-Sep-20 17:29N 43°48' E 014°13'47 8.5
2018-Sep-20 12:00N 43°12' E 014°54'3618.1 290 / 161017.4 5.4 24.022.525.0
2018-Sep-20 10:00N 42°36' E 014°48'88 9.8 300 / 121018.910.8 23.518.826.0
2018-Sep-20 01:00N 42°36' E 016°48'43 1.8 300 / 101017.310.8 24.519.926.0
2018-Sep-19 01:00N 42°06' E 017°30'3010.0 1018.510.8 24.020.226.0
2018-Sep-18 22:00N 41°42' E 017°54'34 1.6 1019.110.8 24.519.126.0
2018-Sep-18 01:00N 41°54' E 018°36'14814.5 330 / 31018.810.8 24.020.226.0
2018-Sep-17 14:47N 39°38' E 019°54'42 2.9
2018-Sep-17 00:00N 39°00' E 019°30'3919.6 020 / 161018.110.8 25.521.027.0
2018-Sep-16 22:00N 38°48' E 018°42'6412.8 340 / 221019.110.8 25.020.427.0
2018-Sep-16 17:00N 38°18' E 017°30'7318.2 330 / 161019.810.8 25.520.227.0
2018-Sep-16 13:00N 37°48' E 016°06'2423.8 160 / 51020.510.8 26.520.528.0
2018-Sep-16 11:59N 37°55' E 015°37'714.8
2018-Sep-16 11:30N 38°02' E 015°35'714.8
2018-Sep-16 11:03N 38°09' E 015°35'114.6
2018-Sep-16 11:00N 38°09' E 015°35'814.8
2018-Sep-16 10:26N 38°17' E 015°41'512.4
2018-Sep-16 10:03N 38°21' E 015°38'112.0
2018-Sep-16 10:00N 38°21' E 015°38'611.9
2018-Sep-16 09:29N 38°26' E 015°33'512.0
2018-Sep-16 09:03N 38°30' E 015°28'112.0
2018-Sep-16 08:57N 38°31' E 015°27'611.7
2018-Sep-16 08:28N 38°35' E 015°22'512.3
2018-Sep-16 08:03N 38°39' E 015°18'114.8
2018-Sep-16 07:59N 38°40' E 015°17'714.9
2018-Sep-16 07:30N 38°45' E 015°11'714.7
2018-Sep-16 07:03N 38°50' E 015°06'115.0
2018-Sep-16 07:00N 38°51' E 015°05'7717.6
2018-Sep-16 02:37N 39°48' E 013°59'618.3
2018-Sep-16 02:15N 39°53' E 013°53'619.7
2018-Sep-16 01:58N 39°57' E 013°48'1716.9
2018-Sep-16 01:00N 40°06' E 013°30'7117.7 260 / 41021.610.8 25.020.427.0
2018-Sep-15 21:00N 41°00' E 012°30'124 5.2 270 / 71021.310.8 24.519.127.0
2018-Sep-14 21:00N 42°30' E 010°36'1732.2 160 / 31017.210.8 24.020.226.0
2018-Sep-14 20:28N 42°47' E 010°32'1418.7
2018-Sep-14 19:43N 42°60' E 010°25'419.2
2018-Sep-14 19:30N 43°03' E 010°22'2019.2
2018-Sep-14 18:26N 43°22' E 010°11'718.1
2018-Sep-14 18:04N 43°29' E 010°11'116.1
2018-Sep-14 18:01N 43°30' E 010°11'510.0
2018-Sep-14 17:30N 43°32' E 010°17'1 1.8
2018-Sep-14 17:01N 43°33' E 010°18'0 0.0
2018-Sep-14 16:58N 43°33' E 010°18'0 0.0
2018-Sep-14 16:28N 43°33' E 010°18'0 0.0
2018-Sep-14 16:01N 43°33' E 010°18'0 0.0
2018-Sep-14 15:55N 43°33' E 010°18'0 0.0
2018-Sep-14 15:28N 43°33' E 010°18'0 0.0
2018-Sep-14 15:01N 43°33' E 010°18'0 0.0
2018-Sep-14 14:55N 43°33' E 010°18'0 0.0
2018-Sep-14 14:28N 43°33' E 010°18'0 0.0
2018-Sep-14 13:58N 43°33' E 010°18'0 0.0
2018-Sep-14 13:28N 43°33' E 010°18'0 0.0
2018-Sep-14 12:49N 43°33' E 010°18'0 0.0
2018-Sep-14 12:28N 43°33' E 010°18'0 0.0
2018-Sep-14 12:01N 43°33' E 010°18'0 0.0
2018-Sep-14 11:58N 43°33' E 010°18'0 0.0
2018-Sep-14 11:28N 43°33' E 010°18'0 0.0
2018-Sep-14 11:01N 43°33' E 010°18'0 0.0
2018-Sep-14 10:58N 43°33' E 010°18'0 0.0
2018-Sep-14 10:28N 43°33' E 010°18'0 0.0
2018-Sep-14 10:01N 43°33' E 010°18'0 0.0
2018-Sep-14 09:58N 43°33' E 010°18'0 0.0
2018-Sep-14 09:25N 43°33' E 010°18'0 0.0
2018-Sep-14 08:58N 43°33' E 010°18'0 0.0
2018-Sep-14 08:28N 43°33' E 010°18'0 0.0
2018-Sep-14 07:58N 43°33' E 010°18'0 0.0
2018-Sep-14 07:25N 43°33' E 010°18'0 0.0
2018-Sep-14 07:01N 43°33' E 010°18'0 0.0
2018-Sep-14 06:58N 43°33' E 010°18'0 0.0
2018-Sep-14 06:28N 43°33' E 010°18'0 0.0
2018-Sep-14 06:01N 43°33' E 010°18'0 0.0
2018-Sep-14 05:58N 43°33' E 010°18'0 0.0
2018-Sep-14 05:28N 43°33' E 010°18'0 0.0
2018-Sep-14 05:01N 43°33' E 010°18'0 0.0
2018-Sep-14 04:58N 43°33' E 010°18'0 0.2
2018-Sep-14 04:30N 43°33' E 010°18'2 5.3
2018-Sep-14 04:04N 43°31' E 010°15'0 3.8
2018-Sep-14 04:01N 43°31' E 010°15'510.5
2018-Sep-14 03:30N 43°30' E 010°08'511.8
2018-Sep-14 03:03N 43°31' E 010°01'111.2
2018-Sep-14 03:00N 43°31' E 010°00'612.0
2018-Sep-14 02:30N 43°32' E 009°52'612.5
2018-Sep-14 02:03N 43°33' E 009°44'112.6
2018-Sep-14 02:00N 43°33' E 009°44'612.4
2018-Sep-14 01:31N 43°33' E 009°35'612.5
2018-Sep-14 01:04N 43°34' E 009°27'112.6
2018-Sep-14 01:00N 43°34' E 009°26'4396.1
2018-Sep-14 01:00N 43°30' E 009°24'613.1 250 / 31015.310.8 23.020.726.0
2018-Sep-14 00:31N 43°34' E 009°18'612.5
2018-Sep-14 00:03N 43°35' E 009°10'012.7
2018-Sep-14 00:01N 43°36' E 009°09'612.5
2018-Sep-13 23:31N 43°37' E 009°01'512.0
2018-Sep-13 23:03N 43°36' E 008°54'112.5
2018-Sep-13 23:00N 43°35' E 008°53'241455.1
2018-Sep-13 23:00N 43°24' E 008°24'1836.5 060 / 121015.210.8 23.520.425.0
2018-Sep-13 22:31N 43°33' E 008°45'511.5
2018-Sep-13 22:03N 43°31' E 008°38'112.5
2018-Sep-13 22:01N 43°31' E 008°38'612.4
2018-Sep-13 21:30N 43°28' E 008°30'612.4
2018-Sep-13 21:04N 43°26' E 008°23'112.4
2018-Sep-13 21:00N 43°25' E 008°22'612.4
2018-Sep-13 20:31N 43°23' E 008°14'612.4
2018-Sep-13 20:04N 43°21' E 008°07'112.9
2018-Sep-13 20:01N 43°20' E 008°06'713.1
2018-Sep-13 19:30N 43°18' E 007°58'613.1
2018-Sep-13 19:03N 43°16' E 007°51'112.9
2018-Sep-13 19:01N 43°16' E 007°50'611.8
2018-Sep-13 18:31N 43°16' E 007°42'612.7
2018-Sep-13 18:03N 43°21' E 007°38'112.7
2018-Sep-13 18:00N 43°22' E 007°38'612.6
2018-Sep-13 17:30N 43°27' E 007°34'612.4
2018-Sep-13 17:03N 43°33' E 007°31'112.4
2018-Sep-13 17:01N 43°33' E 007°31'612.3
2018-Sep-13 16:31N 43°39' E 007°28'511.4
2018-Sep-13 16:03N 43°44' E 007°27'0 3.7
2018-Sep-13 16:00N 43°44' E 007°27'0 0.1
2018-Sep-13 15:31N 43°44' E 007°27'0 0.0
2018-Sep-13 15:04N 43°44' E 007°27'0 0.0
2018-Sep-13 15:01N 43°44' E 007°27'0 0.0
2018-Sep-13 14:30N 43°44' E 007°27'0 0.0
2018-Sep-13 14:00N 43°44' E 007°27'0 0.0
2018-Sep-13 13:30N 43°44' E 007°27'0 0.0
2018-Sep-13 13:04N 43°44' E 007°27'0 0.0
2018-Sep-13 13:01N 43°44' E 007°27'0 0.0
2018-Sep-13 12:30N 43°44' E 007°27'0 0.0
2018-Sep-13 12:04N 43°44' E 007°27'0 0.0
2018-Sep-13 12:01N 43°44' E 007°27'0 0.0
2018-Sep-13 11:31N 43°44' E 007°27'0 0.0
2018-Sep-13 11:03N 43°44' E 007°27'0 0.0
2018-Sep-13 11:01N 43°44' E 007°27'0 0.0
2018-Sep-13 10:31N 43°44' E 007°27'0 0.0
2018-Sep-13 10:04N 43°44' E 007°27'0 0.0
2018-Sep-13 10:01N 43°44' E 007°27'0 0.0
2018-Sep-13 09:31N 43°44' E 007°27'0 0.0
2018-Sep-13 09:04N 43°44' E 007°27'0 0.0
2018-Sep-13 09:00N 43°44' E 007°27'0 0.0
2018-Sep-13 08:31N 43°44' E 007°27'0 0.0
2018-Sep-13 08:04N 43°44' E 007°27'0 0.0
2018-Sep-13 08:01N 43°44' E 007°27'0 0.0
2018-Sep-13 07:31N 43°44' E 007°27'0 0.0
2018-Sep-13 07:03N 43°44' E 007°27'0 0.0
2018-Sep-13 07:00N 43°44' E 007°27'0 0.0
2018-Sep-13 06:31N 43°44' E 007°27'0 0.0
2018-Sep-13 06:04N 43°44' E 007°27'0 0.0
2018-Sep-13 06:01N 43°44' E 007°27'0 0.0
2018-Sep-13 05:30N 43°44' E 007°27'0 0.5
2018-Sep-13 05:04N 43°44' E 007°26'0 2.0
2018-Sep-13 05:01N 43°44' E 007°26'510.3
2018-Sep-13 04:31N 43°39' E 007°27'612.3
2018-Sep-13 04:04N 43°33' E 007°28'112.1
2018-Sep-13 04:01N 43°33' E 007°28'612.4
2018-Sep-13 03:30N 43°26' E 007°30'512.1
2018-Sep-13 03:04N 43°21' E 007°31'112.2
2018-Sep-13 03:00N 43°21' E 007°31'612.3
2018-Sep-13 02:30N 43°14' E 007°31'612.3
2018-Sep-13 02:04N 43°09' E 007°32'112.5
2018-Sep-13 02:00N 43°08' E 007°33'612.5
2018-Sep-13 01:31N 43°02' E 007°34'612.5
2018-Sep-13 01:02N 42°56' E 007°35'012.5
2018-Sep-13 01:00N 42°56' E 007°35'612.4
2018-Sep-13 00:30N 42°50' E 007°36'612.6
2018-Sep-13 00:04N 42°44' E 007°37'112.4
2018-Sep-13 00:01N 42°44' E 007°37'612.5
2018-Sep-12 23:30N 42°37' E 007°39'512.5
2018-Sep-12 23:03N 42°32' E 007°40'112.4
2018-Sep-12 23:01N 42°31' E 007°40'612.4
2018-Sep-12 22:31N 42°25' E 007°41'612.5
2018-Sep-12 22:04N 42°20' E 007°42'112.9
2018-Sep-12 22:00N 42°19' E 007°42'612.6
2018-Sep-12 21:31N 42°13' E 007°44'612.5
2018-Sep-12 21:03N 42°07' E 007°45'112.4
2018-Sep-12 21:00N 42°07' E 007°45'2153.5
2018-Sep-12 21:00N 42°06' E 007°42'613.1 270 / 151019.910.8 24.021.025.0
2018-Sep-12 20:31N 42°00' E 007°46'612.5
2018-Sep-12 20:03N 41°55' E 007°47'112.8
2018-Sep-12 20:00N 41°54' E 007°47'611.5
2018-Sep-12 19:30N 41°49' E 007°51'612.6
2018-Sep-12 19:03N 41°48' E 007°58'112.6
2018-Sep-12 19:00N 41°48' E 007°59'612.5
2018-Sep-12 18:31N 41°48' E 008°07'612.4
2018-Sep-12 18:04N 41°47' E 008°15'112.3
2018-Sep-12 18:01N 41°47' E 008°16'612.3
2018-Sep-12 17:30N 41°47' E 008°24'511.9
2018-Sep-12 17:03N 41°48' E 008°31'112.5
2018-Sep-12 17:00N 41°48' E 008°32'187.9
2018-Sep-12 17:00N 41°48' E 008°30'715.0 330 / 121019.810.8 25.022.026.0
2018-Sep-12 16:30N 41°51' E 008°39'511.1
2018-Sep-12 16:01N 41°54' E 008°45'1 8.7
2018-Sep-12 15:55N 41°55' E 008°45'  

Dump ship's entire track history